createdAt,value
2019-05-12T00:00:52.715Z,16.27
2019-05-12T00:03:28.910Z,15.37
2019-05-12T00:06:05.081Z,14.80
2019-05-12T00:08:41.223Z,15.93
2019-05-12T00:11:18.027Z,15.37
2019-05-12T00:13:54.286Z,14.87
2019-05-12T00:16:30.430Z,16.30
2019-05-12T00:19:09.072Z,16.20
2019-05-12T00:21:44.444Z,14.67
2019-05-12T00:24:20.675Z,15.33
2019-05-12T00:26:58.552Z,16.23
2019-05-12T00:29:34.872Z,14.63
2019-05-12T00:32:11.124Z,17.03
2019-05-12T00:34:48.056Z,15.57
2019-05-12T00:37:24.516Z,14.70
2019-05-12T00:40:00.773Z,13.37
2019-05-12T00:42:38.113Z,15.83
2019-05-12T00:45:14.613Z,14.93
2019-05-12T00:47:50.823Z,13.73
2019-05-12T00:50:28.875Z,15.33
2019-05-12T00:53:04.838Z,13.90
2019-05-12T00:55:40.936Z,15.43
2019-05-12T00:58:19.546Z,15.57
2019-05-12T01:00:54.962Z,15.53
2019-05-12T01:03:31.163Z,15.83
2019-05-12T01:06:08.451Z,15.50
2019-05-12T01:08:44.727Z,15.37
2019-05-12T01:11:20.868Z,14.10
2019-05-12T01:13:58.293Z,15.07
2019-05-12T01:16:34.718Z,16.03
2019-05-12T01:19:10.971Z,15.77
2019-05-12T01:21:48.174Z,16.43
2019-05-12T01:24:24.414Z,14.93
2019-05-12T01:27:00.619Z,16.33
2019-05-12T01:29:38.542Z,17.37
2019-05-12T01:32:22.226Z,15.30
2019-05-12T01:34:58.392Z,16.57
2019-05-12T01:37:34.628Z,15.93
2019-05-12T01:40:11.201Z,16.70
2019-05-12T01:42:48.399Z,17.03
2019-05-12T01:45:24.757Z,17.07
2019-05-12T01:48:01.003Z,16.37
2019-05-12T01:50:38.552Z,16.63
2019-05-12T01:53:15.240Z,15.83
2019-05-12T01:55:51.488Z,16.07
2019-05-12T01:58:27.894Z,15.13
2019-05-12T02:01:04.190Z,16.47
2019-05-12T02:03:40.442Z,16.80
2019-05-12T02:06:18.440Z,16.97
2019-05-12T02:08:58.138Z,16.73
2019-05-12T02:11:34.023Z,16.67
2019-05-12T02:14:10.234Z,17.13
2019-05-12T02:16:47.719Z,17.33
2019-05-12T02:19:24.122Z,15.37
2019-05-12T02:22:00.376Z,17.37
2019-05-12T02:24:38.917Z,16.53
2019-05-12T02:27:14.452Z,14.53
2019-05-12T02:29:50.625Z,16.00
2019-05-12T02:32:33.208Z,15.87
2019-05-12T02:35:06.038Z,15.23
2019-05-12T02:37:45.181Z,15.47
2019-05-12T02:40:21.205Z,16.33
2019-05-12T02:42:57.462Z,14.27
2019-05-12T02:45:35.487Z,12.57
2019-05-12T02:48:14.178Z,14.30
2019-05-12T02:50:49.414Z,13.90
2019-05-12T02:53:25.826Z,14.03
2019-05-12T02:56:05.034Z,14.50
2019-05-12T02:58:45.140Z,12.63
2019-05-12T03:01:24.467Z,15.27
2019-05-12T03:04:05.406Z,14.27
2019-05-12T03:06:44.592Z,12.30
2019-05-12T03:09:19.953Z,12.93
2019-05-12T03:11:57.314Z,12.73
2019-05-12T03:14:39.321Z,11.20
2019-05-12T03:17:11.388Z,12.37
2019-05-12T03:19:47.589Z,13.70
2019-05-12T03:22:25.298Z,11.27
2019-05-12T03:25:14.635Z,13.33
2019-05-12T03:27:39.533Z,13.60
2019-05-12T03:30:19.458Z,11.03
2019-05-12T03:32:58.039Z,9.63
2019-05-12T03:35:35.174Z,11.33
2019-05-12T03:38:09.295Z,12.60
2019-05-12T03:40:45.515Z,12.10
2019-05-12T03:43:24.193Z,9.67
2019-05-12T03:45:59.609Z,10.67
2019-05-12T03:48:35.714Z,12.47
2019-05-12T03:51:15.211Z,11.97
2019-05-12T03:53:49.823Z,11.70
2019-05-12T03:56:26.400Z,8.70
2019-05-12T03:59:04.872Z,11.80
2019-05-12T04:01:40.793Z,9.97
2019-05-12T04:04:17.019Z,10.63
2019-05-12T04:06:54.382Z,10.70
2019-05-12T04:09:30.777Z,10.73
2019-05-12T04:12:07.107Z,10.93
2019-05-12T04:14:44.893Z,6.10
2019-05-12T04:17:24.209Z,7.37
2019-05-12T04:20:04.477Z,6.07
2019-05-12T04:22:38.809Z,7.90
2019-05-12T04:25:15.010Z,6.80
2019-05-12T04:27:54.048Z,5.60
2019-05-12T04:30:29.014Z,7.73
2019-05-12T04:33:05.975Z,7.27
2019-05-12T04:35:45.246Z,5.83
2019-05-12T04:38:20.320Z,6.43
2019-05-12T04:40:56.536Z,6.63
2019-05-12T04:43:35.358Z,6.27
2019-05-12T04:46:10.664Z,5.90
2019-05-12T04:48:46.864Z,5.40
2019-05-12T04:51:25.997Z,6.00
2019-05-12T04:54:00.954Z,6.37
2019-05-12T04:56:37.121Z,5.90
2019-05-12T04:59:15.732Z,5.67
2019-05-12T05:01:53.897Z,5.27
2019-05-12T05:04:29.031Z,5.77
2019-05-12T05:07:05.971Z,4.77
2019-05-12T05:09:44.306Z,4.70
2019-05-12T05:12:19.995Z,4.87
2019-05-12T05:14:56.237Z,4.40
2019-05-12T05:17:34.779Z,4.63
2019-05-12T05:20:10.495Z,3.80
2019-05-12T05:22:46.671Z,3.37
2019-05-12T05:25:23.665Z,3.50
2019-05-12T05:28:00.040Z,4.13
2019-05-12T05:30:36.171Z,3.60
2019-05-12T05:33:14.478Z,3.90
2019-05-12T05:35:50.231Z,4.30
2019-05-12T05:38:26.387Z,3.80
2019-05-12T05:41:05.807Z,3.77
2019-05-12T05:43:40.331Z,2.87
2019-05-12T05:46:16.474Z,2.63
2019-05-12T05:48:54.230Z,3.53
2019-05-12T05:51:30.531Z,2.73
2019-05-12T05:54:06.693Z,3.00
2019-05-12T05:56:56.972Z,2.97
2019-05-12T05:59:24.147Z,3.37
2019-05-12T06:01:58.534Z,2.97
2019-05-12T06:04:39.190Z,2.60
2019-05-12T06:07:14.368Z,2.90
2019-05-12T06:09:50.430Z,3.10
2019-05-12T06:12:26.576Z,2.53
2019-05-12T06:15:04.215Z,2.97
2019-05-12T06:17:40.857Z,3.10
2019-05-12T06:20:17.032Z,1.97
2019-05-12T06:22:56.646Z,2.83
2019-05-12T06:25:44.562Z,2.40
2019-05-12T06:28:09.300Z,2.70
2019-05-12T06:30:49.840Z,2.30
2019-05-12T06:33:31.350Z,1.97
2019-05-12T06:36:03.222Z,1.77
2019-05-12T06:38:40.574Z,2.50
2019-05-12T06:41:20.776Z,2.30
2019-05-12T06:43:54.735Z,2.27
2019-05-12T06:46:31.231Z,3.43
2019-05-12T06:49:12.786Z,2.63
2019-05-12T06:51:45.316Z,2.50
2019-05-12T06:54:21.539Z,2.30
2019-05-12T06:57:16.665Z,2.60
2019-05-12T06:59:35.600Z,2.70
2019-05-12T07:02:13.854Z,2.37
2019-05-12T07:04:56.262Z,2.50
2019-05-12T07:07:27.836Z,2.63
2019-05-12T07:10:13.028Z,2.80
2019-05-12T07:12:56.014Z,2.40
2019-05-12T07:15:23.427Z,2.00
2019-05-12T07:18:04.363Z,1.60
2019-05-12T07:20:40.585Z,2.57
2019-05-12T07:23:19.543Z,2.30
2019-05-12T07:25:56.276Z,2.30
2019-05-12T07:28:36.305Z,2.13
2019-05-12T07:31:14.047Z,2.03
2019-05-12T07:33:49.639Z,2.37
2019-05-12T07:36:25.940Z,2.17
2019-05-12T07:39:06.197Z,1.97
2019-05-12T07:41:50.736Z,2.27
2019-05-12T07:44:25.241Z,1.70
2019-05-12T07:47:03.419Z,2.00
2019-05-12T07:49:39.081Z,1.90
2019-05-12T07:52:15.324Z,1.67
2019-05-12T07:54:55.485Z,1.57
2019-05-12T07:57:29.338Z,1.90
2019-05-12T08:00:11.494Z,2.37
2019-05-12T08:02:47.331Z,2.40
2019-05-12T08:05:23.990Z,2.50
2019-05-12T08:08:00.537Z,2.93
2019-05-12T08:10:38.223Z,2.50
2019-05-12T08:13:14.956Z,2.30
2019-05-12T08:15:55.697Z,2.37
2019-05-12T08:18:35.657Z,2.07
2019-05-12T08:21:08.071Z,2.30
2019-05-12T08:23:44.610Z,2.03
2019-05-12T08:26:20.966Z,2.00
2019-05-12T08:28:57.231Z,1.93
2019-05-12T08:31:38.614Z,1.47
2019-05-12T08:34:13.530Z,1.67
2019-05-12T08:36:53.100Z,1.70
2019-05-12T08:39:30.370Z,2.07
2019-05-12T08:42:06.869Z,1.53
2019-05-12T08:44:43.958Z,1.77
2019-05-12T08:47:23.773Z,2.07
2019-05-12T08:49:58.937Z,1.70
2019-05-12T08:52:37.097Z,1.43
2019-05-12T08:55:16.820Z,1.67
2019-05-12T08:57:51.344Z,1.67
2019-05-12T09:00:45.436Z,1.40
2019-05-12T09:03:20.530Z,2.23
2019-05-12T09:05:58.431Z,1.63
2019-05-12T09:08:35.948Z,1.90
2019-05-12T09:11:13.921Z,2.37
2019-05-12T09:13:52.703Z,2.20
2019-05-12T09:16:28.216Z,2.77
2019-05-12T09:19:10.238Z,2.23
2019-05-12T09:21:45.268Z,2.00
2019-05-12T09:24:25.847Z,1.97
2019-05-12T09:27:04.237Z,1.70
2019-05-12T09:29:37.041Z,2.37
2019-05-12T09:32:14.591Z,2.10
2019-05-12T09:34:58.061Z,1.50
2019-05-12T09:37:39.087Z,1.87
2019-05-12T09:40:10.057Z,1.70
2019-05-12T09:42:47.807Z,1.93
2019-05-12T09:45:24.283Z,1.67
2019-05-12T09:48:04.846Z,1.93
2019-05-12T09:50:38.494Z,1.90
2019-05-12T09:53:14.816Z,2.13
2019-05-12T09:55:53.762Z,1.70
2019-05-12T09:58:29.423Z,1.70
2019-05-12T10:01:05.789Z,1.57
2019-05-12T10:03:43.847Z,2.00
2019-05-12T10:06:21.445Z,2.20
2019-05-12T10:08:57.910Z,2.17
2019-05-12T10:11:34.257Z,1.87
2019-05-12T10:14:10.884Z,2.00
2019-05-12T10:16:49.742Z,1.97
2019-05-12T10:19:25.375Z,1.70
2019-05-12T10:22:01.749Z,1.70
2019-05-12T10:24:43.259Z,2.47
2019-05-12T10:27:21.010Z,2.13
2019-05-12T10:29:55.289Z,1.90
2019-05-12T10:32:31.554Z,3.40
2019-05-12T10:35:12.637Z,2.00
2019-05-12T10:37:47.760Z,1.67
2019-05-12T10:40:24.019Z,2.67
2019-05-12T10:43:00.333Z,2.37
2019-05-12T10:45:45.761Z,1.90
2019-05-12T10:48:23.349Z,1.80
2019-05-12T10:50:59.761Z,2.00
2019-05-12T10:53:39.679Z,2.30
2019-05-12T10:56:16.072Z,2.20
2019-05-12T10:58:55.127Z,2.50
2019-05-12T11:01:31.468Z,1.77
2019-05-12T11:04:07.726Z,1.80
2019-05-12T11:06:48.577Z,1.83
2019-05-12T11:09:27.336Z,1.90
2019-05-12T11:12:04.412Z,1.90
2019-05-12T11:14:44.018Z,1.97
2019-05-12T11:17:26.018Z,2.30
2019-05-12T11:20:04.115Z,2.03
2019-05-12T11:22:40.183Z,1.90
2019-05-12T11:25:19.285Z,1.90
2019-05-12T11:27:55.637Z,1.77
2019-05-12T11:30:34.296Z,1.70
2019-05-12T11:33:10.335Z,1.70
2019-05-12T11:35:54.170Z,1.77
2019-05-12T11:38:35.122Z,2.00
2019-05-12T11:41:16.238Z,1.60
2019-05-12T11:43:51.943Z,1.40
2019-05-12T11:46:27.474Z,1.20
2019-05-12T11:49:04.463Z,1.70
2019-05-12T11:51:42.421Z,1.40
2019-05-12T11:54:21.392Z,1.73
2019-05-12T11:56:57.828Z,1.80
2019-05-12T11:59:34.323Z,1.67
2019-05-12T12:02:10.673Z,1.47
2019-05-12T12:04:46.892Z,1.57
2019-05-12T12:07:23.904Z,2.23
2019-05-12T12:10:00.479Z,1.80
2019-05-12T12:12:39.622Z,1.80
2019-05-12T12:15:14.868Z,1.70
2019-05-12T12:17:53.435Z,1.90
2019-05-12T12:20:29.533Z,1.83
2019-05-12T12:23:10.824Z,1.67
2019-05-12T12:25:48.735Z,1.63
2019-05-12T12:28:24.009Z,1.33
2019-05-12T12:31:02.014Z,1.50
2019-05-12T12:33:40.671Z,1.60
2019-05-12T12:36:15.562Z,1.30
2019-05-12T12:38:53.543Z,1.37
2019-05-12T12:41:34.126Z,1.60
2019-05-12T12:44:10.507Z,1.40
2019-05-12T12:46:51.226Z,1.47
2019-05-12T12:49:24.670Z,1.70
2019-05-12T12:52:03.156Z,1.10
2019-05-12T12:54:38.787Z,1.30
2019-05-12T12:57:15.131Z,1.20
2019-05-12T12:59:52.838Z,1.73
2019-05-12T13:02:33.820Z,1.50
2019-05-12T13:05:10.190Z,2.77
2019-05-12T13:07:46.466Z,1.70
2019-05-12T13:10:24.720Z,1.30
2019-05-12T13:13:03.411Z,1.93
2019-05-12T13:15:38.895Z,1.37
2019-05-12T13:18:23.502Z,1.70
2019-05-12T13:20:53.957Z,1.50
2019-05-12T13:23:37.947Z,1.43
2019-05-12T13:26:08.758Z,1.70
2019-05-12T13:28:53.016Z,1.23
2019-05-12T13:31:24.331Z,1.33
2019-05-12T13:34:00.824Z,1.77
2019-05-12T13:36:39.213Z,1.57
2019-05-12T13:39:16.494Z,1.50
2019-05-12T13:41:56.241Z,1.83
2019-05-12T13:44:36.372Z,2.10
2019-05-12T13:47:09.142Z,1.70
2019-05-12T13:49:47.499Z,1.43
2019-05-12T13:52:26.487Z,1.97
2019-05-12T13:55:05.479Z,1.30
2019-05-12T13:57:46.669Z,1.30
2019-05-12T14:00:19.161Z,1.43
2019-05-12T14:03:03.543Z,1.70
2019-05-12T14:05:33.195Z,1.60
2019-05-12T14:08:11.082Z,1.77
2019-05-12T14:10:53.864Z,1.53
2019-05-12T14:13:25.612Z,1.73
2019-05-12T14:16:05.751Z,1.73
2019-05-12T14:18:40.057Z,1.70
2019-05-12T14:21:16.297Z,1.20
2019-05-12T14:23:52.883Z,1.40
2019-05-12T14:26:33.559Z,1.37
2019-05-12T14:29:13.832Z,1.20
2019-05-12T14:31:55.279Z,1.40
2019-05-12T14:34:28.335Z,1.30
2019-05-12T14:37:08.950Z,1.20
2019-05-12T14:39:46.264Z,1.40
2019-05-12T14:42:26.012Z,1.60
2019-05-12T14:44:58.594Z,1.80
2019-05-12T14:47:35.092Z,1.60
2019-05-12T14:50:13.843Z,1.40
2019-05-12T14:52:50.289Z,1.80
2019-05-12T14:55:28.038Z,1.50
2019-05-12T14:58:09.092Z,1.90
2019-05-12T15:00:44.906Z,1.43
2019-05-12T15:03:23.950Z,1.60
2019-05-12T15:05:59.184Z,1.30
2019-05-12T15:08:40.065Z,1.37
2019-05-12T15:11:13.747Z,1.50
2019-05-12T15:13:50.095Z,1.37
2019-05-12T15:16:26.615Z,1.67
2019-05-12T15:19:03.453Z,1.50
2019-05-12T15:21:40.161Z,1.60
2019-05-12T15:24:19.023Z,1.20
2019-05-12T15:27:00.581Z,1.60
2019-05-12T15:29:34.515Z,1.60
2019-05-12T15:32:12.498Z,1.27
2019-05-12T15:34:48.915Z,1.27
2019-05-12T15:37:28.948Z,1.30
2019-05-12T15:40:05.015Z,1.60
2019-05-12T15:42:41.221Z,1.90
2019-05-12T15:45:18.283Z,1.30
2019-05-12T15:47:54.461Z,1.80
2019-05-12T15:50:30.926Z,2.20
2019-05-12T15:53:07.273Z,1.50
2019-05-12T15:55:43.571Z,1.70
2019-05-12T15:58:20.356Z,1.70
2019-05-12T16:00:58.053Z,1.60
2019-05-12T16:03:34.494Z,1.40
2019-05-12T16:06:14.616Z,2.20
2019-05-12T16:08:48.586Z,1.57
2019-05-12T16:11:24.835Z,1.60
2019-05-12T16:14:01.103Z,1.87
2019-05-12T16:16:42.465Z,2.00
2019-05-12T16:19:15.346Z,1.73
2019-05-12T16:21:54.014Z,1.40
2019-05-12T16:24:29.761Z,1.83
2019-05-12T16:27:06.166Z,1.60
2019-05-12T16:29:45.381Z,1.27
2019-05-12T16:32:26.818Z,1.30
2019-05-12T16:34:58.089Z,1.47
2019-05-12T16:37:35.232Z,1.10
2019-05-12T16:40:13.714Z,1.20
2019-05-12T16:42:53.475Z,1.40
2019-05-12T16:45:27.844Z,1.30
2019-05-12T16:48:07.723Z,1.40
2019-05-12T16:50:43.768Z,1.17
2019-05-12T16:53:27.809Z,1.60
2019-05-12T16:56:06.905Z,1.63
2019-05-12T16:58:43.453Z,1.50
2019-05-12T17:01:26.004Z,1.60
2019-05-12T17:03:57.619Z,1.70
2019-05-12T17:06:38.386Z,1.43
2019-05-12T17:09:14.401Z,1.50
2019-05-12T17:11:52.813Z,1.40
2019-05-12T17:14:28.921Z,1.53
2019-05-12T17:17:06.858Z,1.70
2019-05-12T17:19:43.443Z,1.80
2019-05-12T17:22:21.271Z,1.90
2019-05-12T17:24:57.421Z,1.40
2019-05-12T17:27:34.830Z,1.80
2019-05-12T17:30:13.352Z,2.30
2019-05-12T17:32:58.007Z,1.83
2019-05-12T17:35:31.522Z,1.93
2019-05-12T17:38:04.884Z,1.70
2019-05-12T17:40:41.399Z,2.07
2019-05-12T17:43:17.679Z,2.10
2019-05-12T17:45:56.899Z,2.13
2019-05-12T17:48:31.793Z,1.80
2019-05-12T17:51:08.102Z,2.10
2019-05-12T17:53:44.597Z,1.93
2019-05-12T17:56:25.255Z,1.90
2019-05-12T17:59:00.424Z,1.80
2019-05-12T18:01:36.845Z,1.80
2019-05-12T18:04:14.493Z,2.13
2019-05-12T18:06:53.327Z,2.50
2019-05-12T18:09:30.531Z,2.00
2019-05-12T18:12:06.984Z,2.47
2019-05-12T18:14:51.637Z,2.20
2019-05-12T18:17:23.463Z,1.90
2019-05-12T18:20:00.899Z,2.00
2019-05-12T18:22:39.334Z,1.43
2019-05-12T18:25:15.103Z,2.40
2019-05-12T18:27:51.239Z,1.97
2019-05-12T18:30:27.689Z,1.50
2019-05-12T18:33:06.299Z,1.90
2019-05-12T18:35:43.953Z,1.87
2019-05-12T18:38:24.028Z,1.70
2019-05-12T18:40:57.724Z,1.80
2019-05-12T18:43:34.543Z,1.90
2019-05-12T18:46:13.789Z,2.03
2019-05-12T18:48:54.237Z,2.50
2019-05-12T18:51:26.760Z,2.13
2019-05-12T18:54:03.845Z,3.40
2019-05-12T18:56:40.785Z,2.13
2019-05-12T18:59:17.049Z,2.30
2019-05-12T19:01:54.076Z,2.33
2019-05-12T19:04:34.015Z,2.17
2019-05-12T19:07:08.741Z,2.83
2019-05-12T19:09:47.253Z,2.70
2019-05-12T19:12:31.965Z,3.03
2019-05-12T19:15:00.640Z,2.87
2019-05-12T19:17:36.988Z,3.20
2019-05-12T19:20:13.649Z,3.80
2019-05-12T19:22:57.391Z,3.33
2019-05-12T19:25:30.143Z,3.40
2019-05-12T19:28:10.196Z,2.80
2019-05-12T19:30:43.862Z,2.50
2019-05-12T19:33:20.249Z,1.70
2019-05-12T19:36:02.705Z,2.20
2019-05-12T19:38:34.666Z,1.97
2019-05-12T19:41:10.967Z,2.20
2019-05-12T19:43:49.509Z,2.13
2019-05-12T19:46:24.992Z,2.10
2019-05-12T19:49:01.189Z,1.87
2019-05-12T19:51:37.530Z,2.40
2019-05-12T19:54:14.073Z,1.93
2019-05-12T19:56:50.505Z,2.43
2019-05-12T19:59:26.753Z,2.17
2019-05-12T20:02:04.090Z,2.20
2019-05-12T20:04:43.128Z,2.20
2019-05-12T20:07:18.374Z,9.37
2019-05-12T20:10:00.355Z,2.70
2019-05-12T20:12:34.301Z,2.37
2019-05-12T20:15:10.359Z,2.67
2019-05-12T20:17:48.747Z,2.50
2019-05-12T20:20:28.908Z,2.40
2019-05-12T20:23:03.566Z,3.27
2019-05-12T20:25:39.959Z,2.40
2019-05-12T20:28:16.272Z,2.10
2019-05-12T20:31:00.926Z,2.10
2019-05-12T20:33:30.410Z,2.30
2019-05-12T20:36:06.675Z,1.70
2019-05-12T20:38:44.379Z,2.07
2019-05-12T20:41:26.131Z,2.33
2019-05-12T20:43:58.756Z,1.67
2019-05-12T20:46:34.915Z,1.97
2019-05-12T20:49:12.673Z,1.87
2019-05-12T20:51:54.848Z,2.10
2019-05-12T20:54:26.843Z,1.80
2019-05-12T20:57:07.856Z,2.00
2019-05-12T20:59:40.946Z,1.60
2019-05-12T21:02:17.104Z,1.90
2019-05-12T21:05:00.629Z,1.87
2019-05-12T21:07:33.596Z,1.80
2019-05-12T21:10:09.343Z,1.30
2019-05-12T21:12:49.932Z,1.50
2019-05-12T21:15:29.354Z,1.37
2019-05-12T21:18:04.541Z,1.50
2019-05-12T21:20:39.131Z,1.83
2019-05-12T21:23:15.365Z,2.03
2019-05-12T21:25:56.207Z,1.60
2019-05-12T21:28:29.430Z,1.83
2019-05-12T21:31:05.633Z,1.60
2019-05-12T21:33:41.885Z,1.53
2019-05-12T21:36:24.132Z,1.50
2019-05-12T21:38:59.532Z,1.67
2019-05-12T21:41:34.502Z,1.90
2019-05-12T21:44:11.332Z,1.70
2019-05-12T21:47:01.065Z,1.80
2019-05-12T21:49:25.694Z,1.67
2019-05-12T21:52:04.193Z,1.50
2019-05-12T21:54:39.931Z,1.77
2019-05-12T21:57:19.286Z,1.53
2019-05-12T21:59:55.688Z,1.20
2019-05-12T22:02:34.020Z,2.07
2019-05-12T22:05:16.313Z,1.40
2019-05-12T22:07:47.831Z,1.00
2019-05-12T22:10:26.661Z,1.67
2019-05-12T22:13:07.229Z,1.70
2019-05-12T22:15:39.785Z,1.53
2019-05-12T22:18:15.965Z,1.80
2019-05-12T22:21:00.828Z,1.60
2019-05-12T22:23:30.068Z,1.50
2019-05-12T22:26:06.210Z,1.23
2019-05-12T22:28:46.695Z,1.43
2019-05-12T22:31:20.282Z,1.67
2019-05-12T22:33:56.589Z,1.50
2019-05-12T22:36:33.598Z,1.30
2019-05-12T22:39:09.957Z,1.57
2019-05-12T22:41:46.176Z,1.57
2019-05-12T22:44:25.002Z,1.43
2019-05-12T22:47:04.200Z,2.00
2019-05-12T22:49:38.135Z,1.70
2019-05-12T22:52:17.357Z,1.93
2019-05-12T22:54:53.805Z,1.53
2019-05-12T22:57:38.229Z,1.97
2019-05-12T23:00:13.365Z,1.80
2019-05-12T23:02:46.786Z,1.80
2019-05-12T23:05:24.121Z,1.90
2019-05-12T23:08:05.917Z,1.77
2019-05-12T23:10:41.442Z,1.50
2019-05-12T23:13:16.191Z,1.80
2019-05-12T23:15:52.438Z,1.60
2019-05-12T23:18:30.707Z,1.67
2019-05-12T23:21:12.603Z,2.57
2019-05-12T23:23:44.271Z,1.37
2019-05-12T23:26:20.489Z,1.33
2019-05-12T23:28:56.697Z,1.70
2019-05-12T23:31:34.095Z,1.60
2019-05-12T23:34:12.076Z,1.70
2019-05-12T23:36:50.489Z,1.83
2019-05-12T23:39:26.085Z,2.53
2019-05-12T23:42:04.291Z,1.63
2019-05-12T23:44:40.056Z,2.77
2019-05-12T23:47:16.287Z,1.70
2019-05-12T23:49:53.190Z,1.80
2019-05-12T23:52:29.394Z,2.43
2019-05-12T23:55:06.556Z,2.10
2019-05-12T23:57:44.468Z,2.20
